Time;durP1;ratioP1;P1;durP2;ratioP2;P2;SDS_P1;SDS_P2;PMS_P1;PMS_P2;Temp;Humidity;BMP_temperature;BMP_pressure;BME280_temperature;BME280_humidity;BME280_pressure;Samples;Min_cycle;Max_cycle;Signal;HPM_P1;HPM_P2
2023/10/13 00:01:34;;;;;;;4.68;2.65;;;19.70;59.90;;;;;;4984649;28;20393;-64
2023/10/13 00:04:01;;;;;;;7.35;2.95;;;19.60;59.90;;;;;;4984382;28;20050;-65
2023/10/13 00:06:27;;;;;;;6.05;2.63;;;19.60;60.10;;;;;;4983784;28;20038;-65
2023/10/13 00:08:53;;;;;;;5.60;3.00;;;19.50;60.30;;;;;;4984242;28;20038;-64
2023/10/13 00:11:20;;;;;;;4.40;2.60;;;19.40;60.50;;;;;;4982790;28;20271;-64
2023/10/13 00:13:52;;;;;;;3.05;2.60;;;19.30;60.60;;;;;;4983471;28;20108;-64
2023/10/13 00:16:21;;;;;;;6.93;2.60;;;19.30;60.80;;;;;;4982941;28;20117;-64
2023/10/13 00:18:50;;;;;;;5.35;2.55;;;19.20;60.80;;;;;;4983089;28;20042;-65
2023/10/13 00:21:20;;;;;;;5.70;2.63;;;19.20;61.00;;;;;;4983817;28;20066;-65
2023/10/13 00:23:52;;;;;;;7.13;2.65;;;19.10;60.90;;;;;;4984461;28;20457;-65
2023/10/13 00:26:27;;;;;;;7.55;2.58;;;19.10;61.10;;;;;;4982771;28;20454;-65
2023/10/13 00:29:15;;;;;;;4.05;2.42;;;19.10;61.00;;;;;;4983718;28;20038;-64
2023/10/13 00:31:42;;;;;;;4.53;2.40;;;19.00;60.90;;;;;;4983482;28;20092;-65
2023/10/13 00:34:19;;;;;;;7.30;2.60;;;19.10;61.00;;;;;;4984384;28;20038;-64
2023/10/13 00:39:29;;;;;;;4.78;2.60;;;19.00;60.90;;;;;;4983743;28;20049;-64
2023/10/13 00:41:58;;;;;;;3.72;2.42;;;19.00;61.10;;;;;;4982469;28;20034;-65
2023/10/13 00:44:44;;;;;;;7.85;3.20;;;18.90;61.10;;;;;;4985464;28;20045;-65
2023/10/13 00:47:37;;;;;;;8.77;3.03;;;18.90;61.20;;;;;;4985841;28;20525;-64
2023/10/13 00:50:04;;;;;;;5.22;2.83;;;18.80;61.30;;;;;;4986377;28;20589;-65
2023/10/13 00:52:32;;;;;;;4.07;2.58;;;18.80;61.30;;;;;;4986585;28;20187;-64
2023/10/13 00:55:00;;;;;;;4.45;2.70;;;18.70;61.40;;;;;;4986244;28;20158;-65
2023/10/13 00:57:32;;;;;;;6.63;2.67;;;18.70;61.80;;;;;;4987688;28;20042;-64
2023/10/13 00:59:58;;;;;;;5.30;2.65;;;18.70;61.80;;;;;;4986354;28;20050;-65
2023/10/13 01:05:02;;;;;;;5.65;3.03;;;18.60;62.00;;;;;;4988186;28;20058;-65
2023/10/13 01:07:28;;;;;;;6.97;3.40;;;18.50;62.20;;;;;;4989289;28;20046;-65
2023/10/13 01:09:55;;;;;;;6.05;2.90;;;18.50;62.40;;;;;;4988418;28;20120;-65
2023/10/13 01:12:23;;;;;;;5.88;2.90;;;18.40;62.50;;;;;;4984481;28;20038;-64
2023/10/13 01:14:49;;;;;;;5.55;2.90;;;18.30;62.70;;;;;;4986224;28;20041;-64
2023/10/13 01:17:14;;;;;;;5.82;2.78;;;18.20;62.90;;;;;;4985829;28;20031;-64
2023/10/13 01:19:45;;;;;;;4.90;2.78;;;18.20;63.30;;;;;;4986777;28;20041;-64
2023/10/13 01:22:11;;;;;;;5.32;2.90;;;18.10;63.30;;;;;;4984724;28;20040;-64
2023/10/13 01:24:37;;;;;;;5.47;2.97;;;18.10;63.40;;;;;;4986165;28;20035;-64
2023/10/13 01:27:25;;;;;;;7.03;2.72;;;18.00;63.60;;;;;;4984941;28;20041;-65
2023/10/13 01:29:55;;;;;;;6.13;2.95;;;18.00;63.60;;;;;;4985093;28;20529;-64
2023/10/13 01:32:23;;;;;;;3.42;2.42;;;17.90;63.60;;;;;;4986370;28;20631;-64
2023/10/13 01:34:49;;;;;;;5.97;2.55;;;17.90;63.80;;;;;;4986999;28;20527;-64
2023/10/13 01:37:16;;;;;;;6.15;3.17;;;17.80;63.80;;;;;;4985488;28;20087;-65
2023/10/13 01:39:42;;;;;;;6.75;2.90;;;17.80;63.80;;;;;;4984842;28;20167;-64
2023/10/13 01:42:08;;;;;;;4.53;2.58;;;17.70;64.00;;;;;;4985389;28;20176;-64
2023/10/13 01:44:33;;;;;;;8.38;2.80;;;17.70;64.10;;;;;;4984167;28;20549;-65
2023/10/13 01:47:08;;;;;;;5.20;2.42;;;17.70;64.10;;;;;;4986418;28;20041;-64
2023/10/13 01:49:42;;;;;;;6.20;2.90;;;17.60;64.30;;;;;;4985093;28;20037;-64
2023/10/13 01:52:11;;;;;;;4.25;2.42;;;17.60;64.30;;;;;;4985506;28;20034;-64
2023/10/13 01:54:40;;;;;;;4.90;2.45;;;17.60;64.40;;;;;;4984873;28;20125;-64
2023/10/13 01:57:13;;;;;;;4.63;2.40;;;17.50;64.50;;;;;;4985323;28;20454;-64
2023/10/13 01:59:43;;;;;;;7.43;2.80;;;17.50;64.50;;;;;;4986633;28;20049;-64
2023/10/13 02:02:12;;;;;;;4.82;2.97;;;17.50;64.60;;;;;;4987385;28;20045;-64
2023/10/13 02:04:48;;;;;;;4.68;2.28;;;17.50;64.70;;;;;;4987403;28;20453;-64
2023/10/13 02:07:15;;;;;;;7.82;2.80;;;17.40;64.80;;;;;;4986888;28;20126;-64
2023/10/13 02:09:42;;;;;;;4.72;2.70;;;17.40;64.80;;;;;;4986191;28;20450;-64
2023/10/13 02:12:09;;;;;;;3.88;2.63;;;17.40;65.00;;;;;;4982615;28;20034;-64
2023/10/13 02:14:36;;;;;;;5.78;2.78;;;17.40;65.00;;;;;;4985162;28;20494;-64
2023/10/13 02:17:16;;;;;;;4.03;2.40;;;17.40;65.00;;;;;;4985571;28;20096;-64
2023/10/13 02:19:46;;;;;;;4.70;2.88;;;17.30;65.00;;;;;;4986360;28;20117;-64
2023/10/13 02:22:24;;;;;;;5.95;2.55;;;17.30;65.00;;;;;;4984883;28;20395;-64
2023/10/13 02:24:52;;;;;;;4.43;3.00;;;17.30;65.00;;;;;;4985662;28;20049;-64
2023/10/13 02:27:17;;;;;;;3.70;2.20;;;17.30;65.10;;;;;;4986078;28;20034;-64
2023/10/13 02:29:46;;;;;;;5.53;2.80;;;17.20;65.10;;;;;;4983626;28;20104;-64
2023/10/13 02:32:21;;;;;;;4.75;2.80;;;17.20;65.40;;;;;;4984971;28;20738;-64
2023/10/13 02:34:47;;;;;;;3.67;2.33;;;17.10;65.40;;;;;;4985562;28;20038;-64
2023/10/13 02:37:13;;;;;;;3.25;2.38;;;17.00;65.40;;;;;;4984761;28;20037;-64
2023/10/13 02:39:41;;;;;;;6.63;2.88;;;17.00;65.50;;;;;;4983634;28;20042;-64
2023/10/13 02:42:23;;;;;;;3.90;2.55;;;17.00;65.70;;;;;;4985306;28;20572;-64
2023/10/13 02:44:49;;;;;;;4.28;2.80;;;16.90;65.90;;;;;;4987058;28;20042;-64
2023/10/13 02:47:15;;;;;;;5.35;2.90;;;16.90;65.90;;;;;;4986247;28;20038;-65
2023/10/13 02:49:45;;;;;;;4.15;3.00;;;16.90;66.00;;;;;;4984858;28;20030;-64
2023/10/13 02:52:12;;;;;;;8.02;2.90;;;16.90;66.20;;;;;;4985579;28;20038;-64
2023/10/13 02:54:50;;;;;;;3.95;2.58;;;16.90;66.20;;;;;;4981223;28;20045;-65
2023/10/13 02:57:16;;;;;;;5.35;2.75;;;16.90;66.20;;;;;;4985596;28;20101;-64
2023/10/13 02:59:56;;;;;;;4.13;2.90;;;16.80;66.10;;;;;;4985329;28;20555;-64
2023/10/13 03:02:25;;;;;;;5.75;2.88;;;16.80;66.20;;;;;;4984648;28;20038;-64
2023/10/13 03:04:59;;;;;;;3.78;2.50;;;16.80;66.00;;;;;;4984713;28;20113;-64
2023/10/13 03:07:30;;;;;;;4.97;2.72;;;16.70;66.10;;;;;;4985335;28;20038;-64
2023/10/13 03:10:00;;;;;;;7.68;2.80;;;16.70;66.30;;;;;;4983512;28;20038;-64
2023/10/13 03:12:25;;;;;;;6.10;2.97;;;16.60;66.40;;;;;;4983981;28;20058;-64
2023/10/13 03:14:56;;;;;;;4.15;3.10;;;16.60;66.50;;;;;;4982963;28;20156;-64
2023/10/13 03:17:33;;;;;;;4.93;3.20;;;16.50;66.80;;;;;;4983497;28;20041;-64
2023/10/13 03:19:59;;;;;;;5.40;2.78;;;16.40;66.90;;;;;;4984590;28;20042;-64
2023/10/13 03:22:32;;;;;;;7.97;3.33;;;16.30;67.10;;;;;;4984351;28;20132;-64
2023/10/13 03:25:06;;;;;;;4.53;2.97;;;16.30;67.40;;;;;;4983379;28;20049;-64
2023/10/13 03:30:16;;;;;;;7.15;3.67;;;16.20;67.60;;;;;;4982800;28;20112;-64
2023/10/13 03:32:48;;;;;;;40.47;17.70;;;16.20;67.60;;;;;;4985754;28;20499;-64
2023/10/13 03:35:23;;;;;;;32.38;15.98;;;16.20;67.80;;;;;;4986481;28;20069;-64
2023/10/13 03:37:52;;;;;;;17.77;8.70;;;16.10;67.80;;;;;;4985709;28;20042;-64
2023/10/13 03:45:42;;;;;;;11.90;6.60;;;15.90;68.10;;;;;;4986179;28;20033;-64
2023/10/13 03:48:28;;;;;;;10.05;4.88;;;15.90;68.30;;;;;;4986245;28;20069;-64
2023/10/13 03:51:03;;;;;;;;;;;15.90;68.60;;;;;;4986530;28;20128;-64
2023/10/13 03:53:35;;;;;;;;;;;15.90;68.50;;;;;;4986792;28;20065;-64
2023/10/13 03:56:08;;;;;;;8.25;3.33;;;15.90;67.90;;;;;;4983753;28;19914;-64
2023/10/13 03:58:42;;;;;;;7.22;3.42;;;15.80;67.50;;;;;;4984676;28;20494;-64
2023/10/13 04:01:15;;;;;;;10.15;4.88;;;15.80;68.00;;;;;;4984283;28;20044;-64
2023/10/13 04:15:14;;;;;;;6.03;3.05;;;15.70;68.60;;;;;;4984943;28;20426;-64
2023/10/13 04:17:27;;;;;;;9.02;3.45;;;15.70;68.30;;;;;;4984188;28;20046;-64
2023/10/13 04:41:32;;;;;;;5.97;3.30;;;15.50;69.20;;;;;;4985290;28;20045;-64
2023/10/13 04:51:59;;;;;;;8.68;4.40;;;15.40;68.90;;;;;;4985903;28;20152;-64
2023/10/13 04:55:09;;;;;;;7.95;4.32;;;15.40;69.00;;;;;;4982849;28;20562;-64
2023/10/13 05:46:49;;;;;;;11.13;4.18;;;14.70;70.80;;;;;;4982279;28;20097;-63
2023/10/13 05:51:57;;;;;;;9.02;4.10;;;14.60;71.10;;;;;;4981022;28;20038;-64
2023/10/13 06:30:01;;;;;;;7.50;3.47;;;14.50;72.80;;;;;;4982333;28;20069;-64
2023/10/13 06:32:27;;;;;;;8.13;3.28;;;14.50;72.80;;;;;;4981568;28;20372;-65
2023/10/13 06:34:57;;;;;;;15.10;4.10;;;14.50;73.20;;;;;;4981617;28;20061;-64
2023/10/13 06:37:30;;;;;;;17.35;4.93;;;14.50;73.50;;;;;;4982386;28;20046;-66
2023/10/13 06:39:57;;;;;;;15.98;4.20;;;14.50;73.60;;;;;;4993158;28;20525;-64
2023/10/13 06:42:29;;;;;;;10.88;4.63;;;14.50;73.50;;;;;;4980465;28;20326;-64
2023/10/13 06:45:00;;;;;;;15.68;4.28;;;14.50;73.90;;;;;;4980448;28;20045;-64
2023/10/13 06:47:27;;;;;;;21.25;4.35;;;14.60;73.90;;;;;;4981811;28;20026;-64
2023/10/13 06:49:54;;;;;;;16.02;5.10;;;14.60;73.90;;;;;;4980809;28;20490;-64
2023/10/13 06:52:22;;;;;;;18.17;4.50;;;14.60;74.00;;;;;;4979759;28;20030;-65
2023/10/13 06:54:50;;;;;;;14.00;4.25;;;14.70;74.30;;;;;;4983323;28;20041;-65
2023/10/13 06:57:20;;;;;;;11.43;3.85;;;14.70;74.40;;;;;;4981419;28;20031;-64
2023/10/13 06:59:46;;;;;;;12.07;4.10;;;14.70;74.40;;;;;;4980599;28;20045;-65
2023/10/13 07:02:21;;;;;;;12.77;4.65;;;14.80;74.60;;;;;;4980957;28;20406;-63
2023/10/13 07:05:03;;;;;;;14.10;3.90;;;14.90;74.70;;;;;;4981551;28;20030;-64
2023/10/13 07:07:28;;;;;;;11.38;3.50;;;14.90;74.50;;;;;;4983700;28;20391;-65
2023/10/13 07:09:58;;;;;;;13.65;3.78;;;15.00;74.40;;;;;;4983582;28;20046;-64
2023/10/13 07:12:26;;;;;;;12.05;3.80;;;15.00;74.00;;;;;;4979668;28;20034;-64
2023/10/13 07:14:53;;;;;;;17.65;3.47;;;15.10;74.00;;;;;;4979960;28;20046;-64
2023/10/13 07:17:25;;;;;;;6.85;3.13;;;15.20;73.90;;;;;;4981573;28;20058;-65
2023/10/13 07:19:53;;;;;;;7.38;3.30;;;15.30;73.90;;;;;;4981071;28;20046;-64
2023/10/13 07:22:20;;;;;;;11.23;2.70;;;15.50;74.00;;;;;;4981500;28;20485;-64
2023/10/13 07:24:49;;;;;;;8.25;2.55;;;15.60;73.70;;;;;;4980101;28;20113;-64
2023/10/13 07:27:23;;;;;;;8.13;2.97;;;15.70;73.20;;;;;;4980826;28;20533;-65
2023/10/13 07:30:05;;;;;;;8.95;3.65;;;15.80;72.70;;;;;;4980988;28;20410;-64
2023/10/13 07:32:33;;;;;;;7.88;3.42;;;16.00;72.20;;;;;;4979326;28;20027;-65
2023/10/13 07:35:01;;;;;;;6.45;2.70;;;16.20;71.40;;;;;;4980382;28;20566;-64
2023/10/13 07:37:28;;;;;;;5.50;2.33;;;16.40;70.90;;;;;;4982000;28;20052;-64
2023/10/13 07:39:57;;;;;;;5.80;2.28;;;16.60;70.20;;;;;;4981341;28;20027;-65
2023/10/13 07:42:39;;;;;;;5.95;2.67;;;16.80;69.60;;;;;;4981376;28;20065;-64
2023/10/13 07:45:06;;;;;;;6.72;2.30;;;17.00;68.90;;;;;;4982596;28;20494;-64
2023/10/13 07:47:33;;;;;;;10.93;2.60;;;17.20;68.50;;;;;;4982456;28;20039;-64
2023/10/13 07:49:59;;;;;;;5.43;2.00;;;17.40;67.90;;;;;;4982708;28;20058;-64
2023/10/13 07:52:27;;;;;;;6.97;2.38;;;17.50;67.40;;;;;;4982425;28;20058;-64
2023/10/13 07:54:59;;;;;;;10.40;3.50;;;17.70;66.90;;;;;;4983021;28;20069;-64
2023/10/13 07:57:32;;;;;;;11.13;4.10;;;17.80;66.40;;;;;;4984723;28;20034;-64
2023/10/13 08:00:10;;;;;;;9.70;3.78;;;17.90;66.00;;;;;;4985570;28;20042;-64
2023/10/13 08:02:48;;;;;;;8.20;3.58;;;18.00;65.70;;;;;;4983073;28;20034;-64
2023/10/13 08:05:24;;;;;;;8.23;3.00;;;18.20;65.40;;;;;;4989129;28;20111;-64
2023/10/13 08:07:52;;;;;;;7.70;2.88;;;18.30;65.00;;;;;;4985997;28;20042;-65
2023/10/13 08:10:17;;;;;;;8.65;2.45;;;18.40;64.90;;;;;;4985183;28;20121;-64
2023/10/13 08:12:44;;;;;;;4.72;2.05;;;18.50;64.30;;;;;;4981560;28;20149;-64
2023/10/13 08:15:20;;;;;;;6.07;2.20;;;18.60;63.50;;;;;;4985343;28;20073;-64
2023/10/13 08:17:46;;;;;;;6.35;2.05;;;18.70;63.30;;;;;;4985610;28;20042;-64
2023/10/13 08:20:12;;;;;;;5.82;1.77;;;18.80;63.30;;;;;;4985111;28;20101;-64
2023/10/13 08:22:38;;;;;;;3.92;1.80;;;18.90;62.90;;;;;;4985929;28;20035;-65
2023/10/13 08:30:42;;;;;;;7.30;2.17;;;19.30;62.60;;;;;;4984175;28;20041;-67
2023/10/13 08:33:17;;;;;;;5.60;1.98;;;19.40;62.00;;;;;;4985834;28;20069;-65
2023/10/13 08:35:54;;;;;;;5.15;1.70;;;19.50;61.50;;;;;;4985869;28;20498;-64
2023/10/13 08:38:28;;;;;;;7.03;1.85;;;19.60;60.60;;;;;;4986079;28;20576;-65
2023/10/13 08:41:53;;;;;;;4.07;2.20;;;19.70;60.80;;;;;;4985885;28;20062;-64
2023/10/13 08:43:53;;;;;;;4.22;2.70;;;19.80;60.20;;;;;;4980643;28;20034;-66
2023/10/13 08:46:28;;;;;;;4.75;1.90;;;20.00;60.50;;;;;;4985365;28;20058;-64
2023/10/13 08:49:17;;;;;;;7.22;2.00;;;20.10;59.80;;;;;;4986599;28;20042;-65
2023/10/13 08:51:43;;;;;;;6.80;1.90;;;20.20;59.50;;;;;;4986237;28;20058;-64
2023/10/13 08:54:19;;;;;;;7.07;2.25;;;20.30;59.90;;;;;;4985641;28;20034;-65
2023/10/13 08:57:03;;;;;;;4.75;2.20;;;20.50;59.30;;;;;;4985781;28;20052;-64
2023/10/13 08:59:49;;;;;;;6.90;2.30;;;20.60;59.20;;;;;;4986878;28;20469;-64
2023/10/13 09:02:18;;;;;;;4.95;2.40;;;20.70;59.20;;;;;;4984792;28;20041;-65
2023/10/13 09:04:45;;;;;;;6.43;2.38;;;20.80;58.90;;;;;;4984820;28;20036;-64
2023/10/13 09:07:25;;;;;;;6.28;2.63;;;21.00;58.50;;;;;;4986703;28;20037;-64
2023/10/13 09:12:25;;;;;;;7.70;2.63;;;21.20;58.10;;;;;;4982439;28;20349;-64
2023/10/13 09:14:59;;;;;;;5.50;2.63;;;21.30;58.00;;;;;;4984924;28;20031;-65
2023/10/13 09:17:38;;;;;;;9.25;3.85;;;21.40;57.20;;;;;;4984320;28;20034;-64
2023/10/13 09:25:34;;;;;;;8.30;4.10;;;21.80;57.10;;;;;;4986023;28;20117;-65
2023/10/13 09:28:10;;;;;;;6.03;3.33;;;21.90;56.60;;;;;;4985558;28;20023;-64
2023/10/13 09:30:45;;;;;;;6.50;3.20;;;22.00;56.40;;;;;;4985468;28;20049;-64
2023/10/13 09:33:20;;;;;;;11.73;2.70;;;22.10;55.40;;;;;;4984890;28;20042;-64
2023/10/13 09:35:49;;;;;;;6.80;2.55;;;22.20;55.70;;;;;;4986778;28;20034;-64
2023/10/13 09:38:18;;;;;;;3.45;2.35;;;22.30;55.50;;;;;;4985710;28;20250;-65
2023/10/13 09:40:50;;;;;;;3.75;2.25;;;22.40;54.90;;;;;;4985736;28;21153;-64
2023/10/13 09:43:20;;;;;;;5.13;2.42;;;22.50;55.00;;;;;;4984197;28;20062;-65
2023/10/13 09:46:06;;;;;;;4.22;2.00;;;22.50;54.70;;;;;;4985084;28;20100;-65
2023/10/13 09:48:33;;;;;;;6.15;2.30;;;22.60;54.60;;;;;;4984279;28;20112;-65
2023/10/13 09:51:08;;;;;;;8.10;2.15;;;22.70;54.50;;;;;;4985284;28;20153;-65
2023/10/13 09:53:35;;;;;;;4.53;2.42;;;22.80;54.00;;;;;;4985677;28;20537;-65
2023/10/13 09:56:13;;;;;;;7.18;2.10;;;22.80;54.20;;;;;;4984554;28;20814;-65
2023/10/13 09:58:51;;;;;;;3.28;1.80;;;22.90;53.60;;;;;;4985168;28;20034;-65
2023/10/13 10:01:31;;;;;;;6.18;1.80;;;23.00;54.00;;;;;;4983660;28;20041;-65
2023/10/13 10:04:14;;;;;;;7.15;2.03;;;23.00;53.40;;;;;;4984751;28;20417;-65
2023/10/13 10:06:40;;;;;;;7.45;2.00;;;23.10;53.00;;;;;;4985878;28;20038;-65
2023/10/13 10:09:13;;;;;;;6.30;2.03;;;23.20;53.70;;;;;;4986297;28;20046;-64
2023/10/13 10:11:54;;;;;;;3.67;1.88;;;23.10;53.30;;;;;;4985759;28;20162;-64
2023/10/13 10:14:24;;;;;;;5.55;2.00;;;23.20;53.40;;;;;;4986275;28;20480;-64
2023/10/13 10:16:59;;;;;;;8.15;2.38;;;23.30;53.10;;;;;;4984986;28;20045;-64
2023/10/13 10:19:27;;;;;;;4.65;1.73;;;23.30;52.40;;;;;;4986266;28;20034;-64
2023/10/13 10:22:16;;;;;;;2.42;1.50;;;23.40;52.90;;;;;;4985911;28;20070;-64
2023/10/13 10:24:42;;;;;;;5.68;2.00;;;23.50;51.90;;;;;;4985355;28;20035;-64
2023/10/13 10:27:08;;;;;;;5.28;1.90;;;23.60;52.40;;;;;;4985865;28;20035;-64
2023/10/13 10:29:34;;;;;;;5.60;2.00;;;23.60;52.20;;;;;;4985497;28;20081;-64
2023/10/13 10:32:00;;;;;;;4.63;1.92;;;23.70;52.20;;;;;;4985819;28;20053;-65
2023/10/13 10:34:32;;;;;;;11.05;2.20;;;23.70;52.00;;;;;;4985154;28;20042;-65
2023/10/13 10:36:58;;;;;;;5.15;1.90;;;23.80;51.30;;;;;;4985505;28;20065;-64
2023/10/13 10:39:44;;;;;;;8.27;1.92;;;23.90;51.60;;;;;;4985901;28;20536;-65
2023/10/13 10:42:23;;;;;;;6.15;1.70;;;23.90;51.10;;;;;;4985470;28;20407;-64
2023/10/13 10:44:55;;;;;;;4.93;2.00;;;24.00;51.60;;;;;;4982239;28;20045;-64
2023/10/13 10:47:36;;;;;;;5.88;1.73;;;24.00;51.60;;;;;;4984535;28;20042;-64
2023/10/13 10:50:19;;;;;;;10.27;1.90;;;24.10;51.30;;;;;;4984807;28;20042;-65
2023/10/13 10:52:46;;;;;;;7.78;1.85;;;24.20;51.40;;;;;;4984067;28;21012;-65
2023/10/13 10:55:14;;;;;;;5.05;2.00;;;24.20;51.20;;;;;;4984458;28;20046;-65
2023/10/13 10:57:43;;;;;;;3.38;1.60;;;24.30;50.80;;;;;;4983373;28;20478;-65
2023/10/13 11:00:41;;;;;;;8.38;1.75;;;24.40;50.50;;;;;;4984054;28;20602;-65
2023/10/13 11:03:07;;;;;;;5.90;1.60;;;24.40;49.50;;;;;;4982552;28;20117;-65
2023/10/13 11:05:44;;;;;;;5.40;1.83;;;24.50;50.10;;;;;;4984189;28;20585;-65
2023/10/13 11:08:31;;;;;;;5.78;1.73;;;24.70;49.00;;;;;;4983534;28;20683;-65
2023/10/13 11:11:00;;;;;;;6.57;1.67;;;24.80;48.90;;;;;;4980681;28;20516;-65
2023/10/13 11:13:30;;;;;;;5.28;1.70;;;24.90;49.70;;;;;;4983394;28;20027;-65
2023/10/13 11:15:57;;;;;;;8.50;1.90;;;25.00;49.20;;;;;;4981483;28;20053;-65
2023/10/13 11:18:34;;;;;;;5.70;2.08;;;25.10;49.20;;;;;;4984026;28;20042;-64
2023/10/13 11:20:59;;;;;;;5.38;1.77;;;25.10;48.10;;;;;;4983729;28;20046;-65
2023/10/13 11:23:25;;;;;;;6.65;1.95;;;25.30;49.50;;;;;;4983929;28;20077;-65
2023/10/13 11:26:00;;;;;;;5.45;1.95;;;25.40;48.50;;;;;;4983791;28;20038;-65
2023/10/13 11:28:28;;;;;;;7.05;1.60;;;25.40;47.20;;;;;;4983058;28;20129;-65
2023/10/13 11:30:58;;;;;;;3.40;1.63;;;25.60;47.70;;;;;;4983478;28;20026;-65
2023/10/13 11:33:28;;;;;;;4.38;1.40;;;25.60;47.80;;;;;;4983368;28;20046;-65
2023/10/13 11:38:28;;;;;;;10.65;2.05;;;25.80;47.30;;;;;;4983976;28;20498;-65
2023/10/13 11:43:31;;;;;;;7.72;1.73;;;26.00;46.90;;;;;;4981236;28;20094;-65
2023/10/13 11:48:54;;;;;;;4.25;1.55;;;26.10;46.50;;;;;;4959554;28;20502;-65
2023/10/13 11:51:31;;;;;;;8.07;1.58;;;26.20;47.00;;;;;;4983655;28;20038;-65
2023/10/13 11:53:58;;;;;;;14.23;1.85;;;26.30;47.10;;;;;;4983733;28;20510;-65
2023/10/13 11:56:25;;;;;;;9.00;2.05;;;26.30;45.50;;;;;;4981517;28;20042;-65
2023/10/13 11:58:51;;;;;;;5.60;1.75;;;26.30;44.50;;;;;;4982064;28;20514;-65
2023/10/13 12:12:00;;;;;;;9.32;1.90;;;26.60;44.80;;;;;;4966411;28;20462;-66
2023/10/13 12:14:52;;;;;;;4.93;1.77;;;26.70;44.90;;;;;;4983410;28;20131;-65
2023/10/13 12:17:24;;;;;;;3.92;1.67;;;26.70;44.70;;;;;;4982318;28;20584;-65
2023/10/13 12:19:51;;;;;;;9.20;1.80;;;26.80;45.00;;;;;;4982141;28;20050;-65
2023/10/13 12:22:25;;;;;;;8.23;2.15;;;26.80;44.20;;;;;;4983992;28;20379;-65
2023/10/13 12:24:53;;;;;;;4.78;1.77;;;26.80;43.40;;;;;;4984703;28;20037;-65
2023/10/13 12:27:19;;;;;;;5.13;1.75;;;26.90;42.40;;;;;;4985546;28;20022;-65
2023/10/13 12:29:56;;;;;;;4.97;1.90;;;26.90;41.60;;;;;;4986358;28;20056;-65
2023/10/13 12:32:24;;;;;;;5.47;1.85;;;27.00;40.50;;;;;;4983256;28;20041;-65
2023/10/13 12:53:55;;;;;;;4.80;1.42;;;27.20;41.00;;;;;;4989297;28;20415;-65
2023/10/13 12:56:28;;;;;;;7.90;2.05;;;27.20;40.30;;;;;;4988037;28;20058;-65
2023/10/13 12:58:54;;;;;;;5.68;2.08;;;27.20;40.30;;;;;;4988891;28;20121;-65
2023/10/13 13:01:25;;;;;;;11.65;1.70;;;27.20;39.90;;;;;;4988389;28;20030;-65
2023/10/13 13:03:55;;;;;;;12.70;2.05;;;27.30;39.20;;;;;;4986739;28;20030;-65
2023/10/13 13:06:29;;;;;;;12.55;2.10;;;27.30;39.00;;;;;;4986431;28;20034;-65
2023/10/13 13:08:56;;;;;;;8.82;1.90;;;27.30;39.50;;;;;;4989819;28;20030;-65
2023/10/13 13:11:23;;;;;;;7.63;1.90;;;27.30;39.90;;;;;;4989973;28;20125;-65
2023/10/13 13:13:49;;;;;;;3.90;1.98;;;27.30;39.80;;;;;;4988860;28;20037;-65
2023/10/13 13:16:19;;;;;;;15.23;2.28;;;27.30;39.80;;;;;;4987515;28;20034;-65
2023/10/13 13:18:45;;;;;;;6.40;2.13;;;27.30;39.70;;;;;;4985972;28;20060;-65
2023/10/13 13:21:21;;;;;;;6.50;1.90;;;27.40;39.80;;;;;;4988398;28;20457;-65
2023/10/13 13:23:47;;;;;;;7.90;2.05;;;27.40;39.80;;;;;;4988563;28;20517;-65
2023/10/13 13:26:15;;;;;;;10.18;2.22;;;27.40;39.90;;;;;;4988967;28;20034;-65
2023/10/13 13:28:42;;;;;;;8.07;2.22;;;27.40;39.70;;;;;;4988832;28;20030;-65
2023/10/13 13:31:08;;;;;;;8.77;1.92;;;27.40;39.60;;;;;;4990209;28;20038;-65
2023/10/13 13:33:38;;;;;;;6.25;2.10;;;27.40;39.30;;;;;;4989867;28;20113;-65
2023/10/13 13:36:05;;;;;;;4.57;2.00;;;27.50;39.10;;;;;;4990017;28;20035;-65
2023/10/13 13:38:31;;;;;;;6.97;2.05;;;27.50;39.30;;;;;;4989366;28;20177;-65
2023/10/13 13:40:58;;;;;;;6.35;2.17;;;27.50;39.30;;;;;;4988263;28;20057;-65
2023/10/13 13:43:50;;;;;;;10.35;2.00;;;27.50;39.20;;;;;;4989883;28;20112;-65
2023/10/13 13:46:32;;;;;;;4.38;1.85;;;27.50;39.00;;;;;;4989678;28;20403;-65
2023/10/13 13:49:00;;;;;;;8.98;2.03;;;27.50;38.10;;;;;;4989097;28;20092;-65
2023/10/13 13:51:31;;;;;;;5.13;2.15;;;27.50;39.00;;;;;;4989979;28;20069;-65
2023/10/13 13:53:58;;;;;;;5.43;1.83;;;27.60;38.50;;;;;;4989568;28;20045;-65
2023/10/13 13:56:28;;;;;;;6.22;2.58;;;27.50;38.80;;;;;;4989982;28;20038;-65
2023/10/13 13:58:55;;;;;;;3.22;2.05;;;27.50;38.80;;;;;;4989149;28;20048;-65
2023/10/13 14:01:21;;;;;;;7.88;2.33;;;27.50;38.80;;;;;;4989618;28;20497;-65
2023/10/13 14:03:50;;;;;;;9.40;2.17;;;27.50;38.80;;;;;;4989191;28;20069;-65
2023/10/13 14:06:24;;;;;;;4.03;2.05;;;27.50;39.40;;;;;;4989539;28;20525;-65
2023/10/13 14:08:54;;;;;;;4.13;2.05;;;27.50;38.00;;;;;;4989004;28;20038;-65
2023/10/13 14:11:22;;;;;;;5.70;2.15;;;27.50;38.90;;;;;;4988028;28;20034;-65
2023/10/13 14:13:49;;;;;;;8.07;2.10;;;27.40;39.00;;;;;;4988868;28;20053;-65
2023/10/13 14:16:16;;;;;;;6.95;2.28;;;27.40;39.30;;;;;;4989012;28;20121;-65
2023/10/13 14:18:46;;;;;;;5.32;2.10;;;27.40;39.00;;;;;;4988719;28;20523;-65
2023/10/13 14:21:16;;;;;;;6.47;2.17;;;27.40;38.60;;;;;;4989368;28;20049;-65
2023/10/13 14:23:54;;;;;;;8.90;2.20;;;27.40;39.00;;;;;;4989053;28;20038;-65
2023/10/13 14:26:21;;;;;;;7.18;2.05;;;27.40;38.30;;;;;;4988751;28;20406;-65
2023/10/13 14:29:08;;;;;;;3.95;2.00;;;27.40;39.00;;;;;;4988584;28;20034;-65
2023/10/13 14:31:37;;;;;;;2.85;1.90;;;27.30;38.70;;;;;;4987371;28;20045;-65
2023/10/13 14:34:03;;;;;;;4.07;2.03;;;27.40;39.00;;;;;;4988735;28;20034;-65
2023/10/13 14:36:29;;;;;;;6.93;2.03;;;27.40;39.10;;;;;;4988416;28;20405;-65
2023/10/13 14:38:56;;;;;;;7.50;2.17;;;27.30;39.20;;;;;;4988595;28;20038;-65
2023/10/13 14:41:22;;;;;;;7.32;2.53;;;27.30;39.40;;;;;;4987868;28;20030;-65
2023/10/13 14:43:47;;;;;;;12.63;2.13;;;27.30;39.50;;;;;;4988591;28;20420;-65
2023/10/13 14:46:16;;;;;;;5.22;2.10;;;27.30;39.60;;;;;;4988650;28;20997;-65
2023/10/13 14:48:48;;;;;;;6.97;1.90;;;27.30;39.50;;;;;;4988547;28;20040;-65
2023/10/13 14:51:16;;;;;;;3.92;1.98;;;27.20;39.50;;;;;;4988376;28;20061;-65
2023/10/13 14:53:43;;;;;;;5.78;2.35;;;27.30;39.70;;;;;;4988537;28;20050;-65
2023/10/13 14:56:17;;;;;;;6.75;1.85;;;27.20;39.50;;;;;;4988177;28;20038;-65
2023/10/13 14:58:44;;;;;;;15.25;1.90;;;27.20;39.40;;;;;;4988196;28;20042;-65
2023/10/13 15:01:17;;;;;;;5.38;1.92;;;27.20;39.50;;;;;;4988089;28;20061;-65
2023/10/13 15:03:50;;;;;;;7.13;1.67;;;27.20;39.50;;;;;;4987304;28;20164;-65
2023/10/13 15:06:20;;;;;;;5.50;2.22;;;27.10;39.60;;;;;;4987969;28;20105;-65
2023/10/13 15:08:47;;;;;;;4.90;2.17;;;27.10;39.80;;;;;;4987867;28;20041;-65
2023/10/13 15:11:13;;;;;;;4.07;2.05;;;27.10;39.90;;;;;;4986597;28;20030;-65
2023/10/13 15:13:43;;;;;;;7.85;2.30;;;27.00;39.90;;;;;;4987639;28;20038;-65
2023/10/13 15:16:23;;;;;;;6.30;2.00;;;27.00;39.80;;;;;;4987564;28;20042;-65
2023/10/13 15:18:51;;;;;;;5.97;2.08;;;27.00;39.40;;;;;;4987052;28;20121;-65
2023/10/13 15:21:59;;;;;;;5.32;1.90;;;26.90;39.90;;;;;;4988018;28;20045;-65
2023/10/13 15:24:17;;;;;;;5.47;2.13;;;26.90;40.10;;;;;;4987808;28;20711;-65
2023/10/13 15:26:48;;;;;;;3.15;1.83;;;26.90;40.30;;;;;;4987562;28;20034;-65
2023/10/13 15:29:24;;;;;;;7.72;2.35;;;26.80;40.20;;;;;;4988121;28;20042;-65
2023/10/13 15:34:28;;;;;;;8.70;2.00;;;26.80;40.70;;;;;;4987616;28;20121;-65
2023/10/13 15:36:55;;;;;;;6.30;2.10;;;26.70;40.80;;;;;;4987596;28;20402;-65
2023/10/13 15:39:28;;;;;;;6.82;2.22;;;26.70;41.00;;;;;;4987473;28;20042;-65
2023/10/13 15:41:57;;;;;;;5.05;1.98;;;26.60;40.90;;;;;;4987050;28;20469;-65
2023/10/13 15:44:24;;;;;;;3.47;1.98;;;26.60;41.00;;;;;;4987829;28;20077;-65
2023/10/13 15:46:53;;;;;;;4.32;2.40;;;26.60;41.10;;;;;;4986777;28;20119;-65
2023/10/13 15:49:19;;;;;;;5.68;1.92;;;26.50;41.10;;;;;;4986272;28;20030;-65
2023/10/13 15:51:44;;;;;;;7.88;1.92;;;26.50;41.20;;;;;;4987208;28;20092;-65
2023/10/13 15:54:17;;;;;;;9.85;2.20;;;26.40;41.20;;;;;;4987906;28;20035;-65
2023/10/13 15:56:46;;;;;;;4.63;1.73;;;26.30;41.30;;;;;;4987318;28;20088;-65
2023/10/13 15:59:12;;;;;;;2.97;1.80;;;26.30;41.40;;;;;;4987472;28;20046;-65
2023/10/13 16:01:40;;;;;;;4.95;1.88;;;26.20;41.40;;;;;;4988331;28;20035;-65
2023/10/13 16:04:13;;;;;;;6.93;1.88;;;26.20;41.50;;;;;;4986906;28;20421;-65
2023/10/13 16:06:40;;;;;;;5.55;1.90;;;26.10;41.60;;;;;;4987449;28;20031;-65
2023/10/13 16:09:13;;;;;;;6.50;1.90;;;26.00;41.50;;;;;;4986262;28;20038;-65
2023/10/13 16:11:40;;;;;;;8.23;2.38;;;25.90;41.50;;;;;;4984451;28;20046;-66
2023/10/13 16:14:10;;;;;;;4.57;2.28;;;25.90;41.70;;;;;;4986373;28;20038;-66
2023/10/13 16:16:36;;;;;;;9.82;2.10;;;25.80;41.80;;;;;;4990667;28;20026;-66
2023/10/13 16:19:06;;;;;;;6.70;2.05;;;25.70;41.80;;;;;;4988416;28;20030;-66
2023/10/13 16:21:39;;;;;;;4.97;2.10;;;25.60;41.90;;;;;;4990847;28;20030;-65